Time;durP1;ratioP1;P1;durP2;ratioP2;P2;SDS_P1;SDS_P2;PMS_P1;PMS_P2;Temp;Humidity;BMP_temperature;BMP_pressure;BME280_temperature;BME280_humidity;BME280_pressure;Samples;Min_cycle;Max_cycle;Signal;HPM_P1;HPM_P2
2023/12/23 00:01:30;;;;;;;14.83;1.70;;;5.90;99.90;;;;;;5030350;28;20577;-65
2023/12/23 00:03:56;;;;;;;10.97;2.23;;;5.90;99.90;;;;;;5030366;28;20041;-65
2023/12/23 00:06:21;;;;;;;12.80;1.70;;;5.80;99.90;;;;;;5032785;28;20045;-65
2023/12/23 00:08:47;;;;;;;19.73;1.93;;;5.80;99.90;;;;;;5034583;28;20042;-65
2023/12/23 00:11:12;;;;;;;11.40;1.83;;;5.80;99.90;;;;;;5030380;28;20042;-65
2023/12/23 00:13:38;;;;;;;11.63;1.40;;;5.80;99.90;;;;;;5030456;28;20560;-65
2023/12/23 00:16:04;;;;;;;15.50;1.77;;;5.80;99.90;;;;;;5028044;28;20033;-65
2023/12/23 00:18:29;;;;;;;16.10;2.45;;;5.80;99.90;;;;;;5030315;28;20045;-65
2023/12/23 00:20:55;;;;;;;11.97;1.60;;;5.90;99.90;;;;;;5030058;28;20033;-65
2023/12/23 00:23:20;;;;;;;16.23;1.70;;;5.90;99.90;;;;;;5030199;28;20321;-65
2023/12/23 00:25:46;;;;;;;9.13;0.90;;;5.90;99.90;;;;;;5030140;28;20067;-65
2023/12/23 00:28:12;;;;;;;18.07;1.93;;;5.90;99.90;;;;;;5030006;28;20050;-65
2023/12/23 00:30:37;;;;;;;24.27;2.00;;;5.90;99.90;;;;;;5030393;28;20116;-65
2023/12/23 00:33:05;;;;;;;17.03;2.33;;;5.90;99.90;;;;;;5028399;28;20489;-65
2023/12/23 00:35:30;;;;;;;15.85;2.28;;;5.90;99.90;;;;;;5029894;28;20095;-65
2023/12/23 00:37:56;;;;;;;12.13;1.45;;;5.90;99.90;;;;;;5030181;28;20057;-65
2023/12/23 00:40:21;;;;;;;20.10;2.43;;;5.90;99.90;;;;;;5027938;28;20041;-65
2023/12/23 00:42:47;;;;;;;13.23;1.90;;;5.90;99.90;;;;;;5027959;28;20148;-65
2023/12/23 00:45:13;;;;;;;12.37;2.03;;;6.00;99.90;;;;;;5029297;28;20049;-65
2023/12/23 00:47:38;;;;;;;9.73;1.87;;;6.00;99.90;;;;;;5029877;28;20069;-65
2023/12/23 00:50:04;;;;;;;24.63;2.63;;;6.00;99.90;;;;;;5026517;28;20095;-65
2023/12/23 00:52:31;;;;;;;17.98;1.80;;;6.00;99.90;;;;;;5027883;28;20412;-65
2023/12/23 00:54:56;;;;;;;14.85;2.28;;;6.00;99.90;;;;;;5024841;28;20055;-66
2023/12/23 00:57:22;;;;;;;19.83;1.50;;;6.00;99.90;;;;;;5027481;28;20488;-65
2023/12/23 00:59:47;;;;;;;14.50;1.40;;;6.00;99.90;;;;;;5029467;28;20041;-65
2023/12/23 01:02:14;;;;;;;9.17;1.47;;;6.00;99.90;;;;;;5029267;28;20072;-65
2023/12/23 01:04:40;;;;;;;19.27;1.95;;;6.00;99.90;;;;;;5029130;28;20466;-65
2023/12/23 01:07:06;;;;;;;9.63;1.90;;;6.00;99.90;;;;;;5029161;28;20492;-65
2023/12/23 01:09:32;;;;;;;17.92;2.63;;;6.00;99.90;;;;;;5029491;28;20116;-65
2023/12/23 01:11:57;;;;;;;16.50;2.20;;;6.00;99.90;;;;;;5029005;28;20065;-65
2023/12/23 01:14:23;;;;;;;9.27;2.20;;;6.00;99.90;;;;;;5028461;28;20045;-65
2023/12/23 01:16:49;;;;;;;23.48;2.78;;;6.00;99.90;;;;;;5029421;28;20040;-65
2023/12/23 01:19:14;;;;;;;16.20;1.70;;;6.00;99.90;;;;;;5029020;28;20037;-65
2023/12/23 01:21:40;;;;;;;12.13;2.27;;;6.00;99.90;;;;;;5029124;28;20475;-65
2023/12/23 01:24:05;;;;;;;19.20;2.10;;;6.10;99.90;;;;;;5028994;28;20044;-65
2023/12/23 01:26:31;;;;;;;17.33;2.57;;;6.10;99.90;;;;;;5029049;28;20042;-65
2023/12/23 01:29:00;;;;;;;17.20;2.13;;;6.10;99.90;;;;;;5027601;28;20480;-65
2023/12/23 01:31:27;;;;;;;17.48;1.85;;;6.10;99.90;;;;;;5027807;28;20307;-66
2023/12/23 01:33:52;;;;;;;10.93;1.17;;;6.20;99.90;;;;;;5023414;28;20044;-65
2023/12/23 01:36:18;;;;;;;12.63;1.47;;;6.20;99.90;;;;;;5029040;28;20408;-65
2023/12/23 01:38:43;;;;;;;23.03;3.33;;;6.20;99.90;;;;;;5029032;28;20049;-65
2023/12/23 01:41:09;;;;;;;18.80;2.00;;;6.30;99.90;;;;;;5028428;28;20060;-65
2023/12/23 01:43:34;;;;;;;13.30;2.10;;;6.20;99.90;;;;;;5028995;28;20272;-65
2023/12/23 01:46:01;;;;;;;17.53;2.13;;;6.20;99.90;;;;;;5044129;28;20582;-64
2023/12/23 01:48:27;;;;;;;;;;;6.20;99.90;;;;;;5029264;28;20052;-64
2023/12/23 01:50:55;;;;;;;15.43;2.80;;;6.20;99.90;;;;;;5027903;28;19917;-65
2023/12/23 01:53:21;;;;;;;11.43;2.08;;;6.30;99.90;;;;;;5027042;28;20049;-64
2023/12/23 01:55:47;;;;;;;;;;;6.30;99.90;;;;;;5027163;28;20045;-64
2023/12/23 01:58:14;;;;;;;14.32;1.27;;;6.30;99.90;;;;;;5043198;28;19924;-64
2023/12/23 02:00:39;;;;;;;12.23;1.27;;;6.30;99.90;;;;;;5027408;28;20044;-64
2023/12/23 02:03:05;;;;;;;11.40;1.37;;;6.20;99.90;;;;;;5028673;28;20116;-64
2023/12/23 02:05:31;;;;;;;14.25;1.77;;;6.30;99.90;;;;;;5028361;28;20044;-64
2023/12/23 02:07:57;;;;;;;13.40;1.67;;;6.20;99.90;;;;;;5028071;28;20041;-64
2023/12/23 02:10:23;;;;;;;10.60;1.33;;;6.30;99.90;;;;;;5023337;28;20044;-65
2023/12/23 02:13:13;;;;;;;13.43;1.50;;;6.30;99.90;;;;;;5027966;28;20034;-64
2023/12/23 02:15:41;;;;;;;15.15;1.92;;;6.20;99.90;;;;;;5027324;28;20042;-64
2023/12/23 02:18:07;;;;;;;14.48;1.75;;;6.20;99.90;;;;;;5027812;28;20052;-64
2023/12/23 02:20:33;;;;;;;20.77;2.90;;;6.20;99.90;;;;;;5028343;28;20477;-64
2023/12/23 02:22:58;;;;;;;12.57;1.77;;;6.30;99.90;;;;;;5025928;28;20220;-65
2023/12/23 02:25:24;;;;;;;18.88;1.92;;;6.20;99.90;;;;;;5027509;28;20033;-64
2023/12/23 02:27:53;;;;;;;17.60;2.65;;;6.20;99.90;;;;;;5023214;28;20045;-64
2023/12/23 02:30:21;;;;;;;11.20;1.02;;;6.20;99.90;;;;;;5027318;28;20049;-65
2023/12/23 02:32:48;;;;;;;18.80;1.98;;;6.30;99.90;;;;;;5026847;28;20033;-64
2023/12/23 02:35:13;;;;;;;11.32;0.93;;;6.30;99.90;;;;;;5026775;28;20496;-65
2023/12/23 02:37:40;;;;;;;8.15;1.42;;;6.30;99.90;;;;;;5028467;28;20076;-65
2023/12/23 02:40:07;;;;;;;10.90;1.13;;;6.30;99.90;;;;;;5027875;28;20049;-64
2023/12/23 02:42:32;;;;;;;10.25;1.15;;;6.30;99.90;;;;;;5027212;28;20038;-65
2023/12/23 02:44:58;;;;;;;8.20;1.30;;;6.30;99.90;;;;;;5026136;28;20124;-65
2023/12/23 02:47:23;;;;;;;11.67;1.77;;;6.30;99.90;;;;;;5022779;28;20532;-65
2023/12/23 02:49:49;;;;;;;8.47;1.03;;;6.30;99.90;;;;;;5028175;28;20121;-64
2023/12/23 02:52:15;;;;;;;11.57;1.53;;;6.30;99.90;;;;;;5030794;28;20232;-65
2023/12/23 02:54:40;;;;;;;6.07;0.63;;;6.30;99.90;;;;;;5032135;28;20044;-64
2023/12/23 02:57:06;;;;;;;5.20;1.53;;;6.30;99.90;;;;;;5029701;28;20029;-64
2023/12/23 02:59:31;;;;;;;7.30;1.10;;;6.30;99.90;;;;;;5027453;28;20041;-64
2023/12/23 03:01:57;;;;;;;7.17;0.50;;;6.30;99.90;;;;;;5027964;28;20037;-64
2023/12/23 03:04:22;;;;;;;9.77;1.23;;;6.30;99.90;;;;;;5027298;28;20452;-64
2023/12/23 03:06:48;;;;;;;5.83;0.70;;;6.30;99.90;;;;;;5026874;28;20045;-64
2023/12/23 03:09:14;;;;;;;15.10;1.03;;;6.20;99.90;;;;;;5026980;28;20041;-64
2023/12/23 03:11:39;;;;;;;4.37;0.70;;;6.20;99.90;;;;;;5027357;28;20117;-65
2023/12/23 03:14:05;;;;;;;9.87;1.30;;;6.10;99.90;;;;;;5028691;28;20033;-64
2023/12/23 03:16:34;;;;;;;3.20;0.75;;;6.10;99.90;;;;;;5027411;28;20033;-64
2023/12/23 03:19:03;;;;;;;7.43;0.77;;;6.10;99.90;;;;;;5025916;28;20558;-65
2023/12/23 03:21:32;;;;;;;8.88;1.35;;;6.00;99.90;;;;;;5007955;28;20053;-64
2023/12/23 03:23:57;;;;;;;10.98;1.05;;;6.00;99.90;;;;;;5026875;28;20092;-65
2023/12/23 03:26:23;;;;;;;7.83;0.97;;;6.00;99.90;;;;;;5027134;28;20061;-64
2023/12/23 03:28:49;;;;;;;11.07;1.07;;;6.00;99.90;;;;;;5026656;28;20045;-64
2023/12/23 03:31:15;;;;;;;12.88;1.35;;;6.00;99.90;;;;;;5027067;28;20834;-65
2023/12/23 03:33:40;;;;;;;5.93;0.80;;;6.00;99.90;;;;;;5026462;28;20040;-65
2023/12/23 03:36:07;;;;;;;10.93;0.97;;;6.00;99.90;;;;;;5027272;28;20033;-64
2023/12/23 03:38:32;;;;;;;;;;;5.90;99.90;;;;;;5028162;28;20132;-65
2023/12/23 03:40:58;;;;;;;8.88;1.52;;;5.90;99.90;;;;;;5026970;28;20446;-65
2023/12/23 03:43:23;;;;;;;10.63;1.33;;;5.90;99.90;;;;;;5027720;28;20038;-65
2023/12/23 03:45:49;;;;;;;10.70;1.03;;;5.90;99.90;;;;;;5027165;28;20069;-65
2023/12/23 03:48:14;;;;;;;8.70;0.87;;;5.90;99.90;;;;;;5021840;28;20396;-65
2023/12/23 03:50:40;;;;;;;5.75;0.63;;;5.90;99.90;;;;;;5027593;28;20056;-65
2023/12/23 03:53:06;;;;;;;9.48;1.45;;;5.90;99.90;;;;;;5026799;28;20025;-65
2023/12/23 03:55:34;;;;;;;7.17;0.80;;;5.90;99.90;;;;;;5028562;28;20112;-64
2023/12/23 03:58:01;;;;;;;3.97;0.82;;;5.90;99.90;;;;;;5030014;28;20535;-64
2023/12/23 04:00:27;;;;;;;;;;;5.90;99.90;;;;;;5031563;28;20303;-65
2023/12/23 04:02:55;;;;;;;3.22;0.55;;;5.90;99.90;;;;;;5029900;28;20003;-65
2023/12/23 04:05:21;;;;;;;9.77;1.13;;;5.90;99.90;;;;;;5031089;28;20041;-64
2023/12/23 04:07:48;;;;;;;9.15;0.88;;;5.90;99.90;;;;;;5028737;28;20049;-64
2023/12/23 04:10:14;;;;;;;7.43;0.60;;;5.90;99.90;;;;;;5030792;28;20041;-64
2023/12/23 04:12:40;;;;;;;15.02;1.65;;;5.90;99.90;;;;;;5028401;28;20350;-65
2023/12/23 04:15:06;;;;;;;1.80;0.40;;;5.90;99.90;;;;;;5029864;28;20029;-64
2023/12/23 04:17:32;;;;;;;3.85;0.43;;;6.00;99.90;;;;;;5029955;28;20476;-64
2023/12/23 04:19:57;;;;;;;6.10;0.60;;;6.00;99.90;;;;;;5030364;28;20099;-65
2023/12/23 04:22:23;;;;;;;7.67;0.90;;;6.00;99.90;;;;;;5030402;28;20084;-64
2023/12/23 04:24:48;;;;;;;4.73;0.40;;;6.00;99.90;;;;;;5030076;28;20531;-64
2023/12/23 04:27:14;;;;;;;4.63;0.47;;;6.00;99.90;;;;;;5029507;28;20041;-64
2023/12/23 04:29:39;;;;;;;7.00;1.07;;;6.00;99.90;;;;;;5029774;28;20033;-64
2023/12/23 04:32:05;;;;;;;2.90;0.60;;;6.00;99.90;;;;;;5029470;28;20506;-64
2023/12/23 04:34:31;;;;;;;4.28;0.70;;;6.00;99.90;;;;;;5029440;28;20034;-64
2023/12/23 04:36:56;;;;;;;3.87;0.47;;;6.00;99.90;;;;;;5030136;28;20064;-64
2023/12/23 04:39:22;;;;;;;5.10;0.67;;;6.00;99.90;;;;;;5029678;28;20136;-64
2023/12/23 04:41:48;;;;;;;4.57;0.77;;;6.00;99.90;;;;;;5030119;28;20041;-64
2023/12/23 04:44:14;;;;;;;2.90;0.70;;;6.00;99.90;;;;;;5029336;28;20045;-64
2023/12/23 04:46:41;;;;;;;2.88;0.70;;;6.00;99.90;;;;;;5029635;28;20416;-64
2023/12/23 04:49:07;;;;;;;4.47;0.70;;;6.00;99.90;;;;;;5023108;28;20488;-64
2023/12/23 04:51:33;;;;;;;5.15;0.95;;;6.00;99.90;;;;;;5029813;28;20037;-64
2023/12/23 04:53:58;;;;;;;3.20;0.90;;;6.00;99.90;;;;;;5029526;28;20029;-64
2023/12/23 04:56:24;;;;;;;4.60;0.83;;;6.10;99.90;;;;;;5029851;28;20424;-64
2023/12/23 04:58:49;;;;;;;5.33;0.40;;;6.00;99.90;;;;;;5029471;28;20033;-64
2023/12/23 05:01:15;;;;;;;0.70;0.40;;;6.00;99.90;;;;;;5029176;28;20234;-64
2023/12/23 05:03:41;;;;;;;2.50;0.40;;;6.10;99.90;;;;;;5028916;28;20113;-64
2023/12/23 05:06:07;;;;;;;3.97;0.73;;;6.00;99.90;;;;;;5030120;28;20062;-64
2023/12/23 05:08:33;;;;;;;2.03;0.63;;;6.00;99.90;;;;;;5029580;28;20503;-64
2023/12/23 05:10:59;;;;;;;3.80;0.57;;;6.00;99.90;;;;;;5029306;28;20038;-64
2023/12/23 05:13:25;;;;;;;4.68;0.43;;;6.10;99.90;;;;;;5029038;28;20037;-64
2023/12/23 05:15:50;;;;;;;2.40;0.47;;;6.00;99.90;;;;;;5028094;28;20040;-64
2023/12/23 05:18:16;;;;;;;5.30;0.50;;;6.00;99.90;;;;;;5029776;28;20281;-64
2023/12/23 05:20:42;;;;;;;1.02;0.30;;;6.00;99.90;;;;;;5028759;28;20125;-64
2023/12/23 05:23:08;;;;;;;1.65;0.30;;;6.00;99.90;;;;;;5029085;28;20056;-64
2023/12/23 05:25:33;;;;;;;0.90;0.32;;;6.00;99.90;;;;;;5029799;28;20113;-64
2023/12/23 05:27:59;;;;;;;0.40;0.20;;;6.00;99.90;;;;;;5028612;28;20052;-64
2023/12/23 05:30:25;;;;;;;0.70;0.47;;;6.00;99.90;;;;;;5028457;28;20072;-65
2023/12/23 05:32:50;;;;;;;1.80;0.40;;;6.00;99.90;;;;;;5027623;28;20095;-64
2023/12/23 05:35:16;;;;;;;2.92;0.30;;;6.00;99.90;;;;;;5027223;28;20083;-64
2023/12/23 05:37:42;;;;;;;1.13;0.45;;;6.00;99.90;;;;;;5028898;28;20076;-64
2023/12/23 05:40:09;;;;;;;0.70;0.40;;;6.00;99.90;;;;;;5028126;28;20072;-64
2023/12/23 05:42:34;;;;;;;0.98;0.43;;;6.00;99.90;;;;;;5032713;28;20069;-64
2023/12/23 05:45:00;;;;;;;2.75;0.50;;;6.10;99.90;;;;;;5031926;28;20440;-65
2023/12/23 05:47:26;;;;;;;10.03;1.00;;;6.10;99.90;;;;;;5028177;28;20499;-64
2023/12/23 05:49:51;;;;;;;9.93;1.70;;;6.30;99.90;;;;;;5024797;28;20053;-64
2023/12/23 05:52:17;;;;;;;7.57;1.80;;;6.60;99.90;;;;;;5028065;28;20045;-64
2023/12/23 05:54:42;;;;;;;10.43;2.63;;;6.90;99.90;;;;;;5028202;28;20030;-64
2023/12/23 05:57:08;;;;;;;7.47;2.20;;;7.20;99.90;;;;;;5029117;28;20034;-64
2023/12/23 05:59:33;;;;;;;10.17;2.37;;;7.50;99.90;;;;;;5028438;28;20046;-64
2023/12/23 06:01:59;;;;;;;10.70;2.63;;;7.70;99.90;;;;;;5028091;28;20069;-64
2023/12/23 06:04:25;;;;;;;9.63;2.40;;;7.80;99.90;;;;;;5028131;28;20038;-64
2023/12/23 06:06:50;;;;;;;17.90;2.80;;;7.90;99.90;;;;;;5028101;28;20033;-65
2023/12/23 06:09:16;;;;;;;11.37;2.70;;;8.00;99.90;;;;;;5028368;28;20049;-65
2023/12/23 06:11:41;;;;;;;13.27;3.00;;;8.10;99.90;;;;;;5028056;28;20304;-65
2023/12/23 06:14:07;;;;;;;15.80;3.10;;;8.20;99.90;;;;;;5027143;28;20033;-64
2023/12/23 06:16:40;;;;;;;11.73;3.17;;;8.30;99.90;;;;;;5027858;28;20037;-64
2023/12/23 06:19:06;;;;;;;16.42;3.67;;;8.30;99.90;;;;;;5027297;28;20272;-64
2023/12/23 06:21:32;;;;;;;15.55;2.75;;;8.40;99.90;;;;;;5026084;28;20401;-64
2023/12/23 06:23:58;;;;;;;14.73;2.60;;;8.40;99.90;;;;;;5028783;28;20041;-65
2023/12/23 06:26:24;;;;;;;15.35;3.40;;;8.40;99.90;;;;;;5029225;28;20417;-65
2023/12/23 06:28:50;;;;;;;22.55;3.90;;;8.50;99.90;;;;;;5021288;28;20088;-65
2023/12/23 06:31:15;;;;;;;14.17;2.77;;;8.50;99.90;;;;;;5027542;28;20041;-65
2023/12/23 06:33:41;;;;;;;10.47;2.57;;;8.50;99.90;;;;;;5026055;28;20040;-65
2023/12/23 06:36:08;;;;;;;13.97;3.03;;;8.60;99.90;;;;;;5028091;28;20483;-65
2023/12/23 06:38:37;;;;;;;16.20;2.88;;;8.60;99.90;;;;;;5026307;28;20029;-65
2023/12/23 06:41:03;;;;;;;20.38;4.07;;;8.60;99.90;;;;;;5042555;28;20038;-65
2023/12/23 06:43:29;;;;;;;11.32;2.65;;;8.60;99.90;;;;;;5027632;28;20056;-65
2023/12/23 06:45:55;;;;;;;20.40;4.15;;;8.60;99.90;;;;;;5027671;28;20041;-65
2023/12/23 06:48:21;;;;;;;12.25;3.35;;;8.70;99.90;;;;;;5028292;28;20099;-65
2023/12/23 06:50:47;;;;;;;18.10;3.28;;;8.60;99.90;;;;;;5021812;28;20231;-65
2023/12/23 06:53:13;;;;;;;19.15;3.97;;;8.70;99.90;;;;;;5027622;28;20091;-65
2023/12/23 06:55:38;;;;;;;20.35;3.75;;;8.70;99.90;;;;;;5027492;28;20504;-65
2023/12/23 06:58:04;;;;;;;17.37;3.90;;;8.70;99.90;;;;;;5027377;28;20120;-65
2023/12/23 07:00:29;;;;;;;16.97;4.13;;;8.70;99.90;;;;;;5028476;28;20041;-65
2023/12/23 07:02:55;;;;;;;16.52;4.22;;;8.70;99.90;;;;;;5026792;28;20714;-65
2023/12/23 07:05:21;;;;;;;17.93;3.80;;;8.70;99.90;;;;;;5027929;28;20087;-66
2023/12/23 07:07:47;;;;;;;22.93;3.50;;;8.70;99.90;;;;;;5027082;28;20029;-65
2023/12/23 07:10:13;;;;;;;23.08;3.60;;;8.70;99.90;;;;;;5027640;28;20379;-66
2023/12/23 07:12:40;;;;;;;19.63;3.90;;;8.70;99.90;;;;;;5027299;28;20105;-65
2023/12/23 07:15:07;;;;;;;16.63;3.63;;;8.80;99.90;;;;;;5024798;28;20033;-66
2023/12/23 07:17:33;;;;;;;18.30;3.50;;;8.80;99.90;;;;;;5028366;28;20403;-66
2023/12/23 07:20:00;;;;;;;15.93;3.33;;;8.80;99.90;;;;;;5005948;28;20033;-65
2023/12/23 07:22:28;;;;;;;17.83;4.28;;;8.90;99.90;;;;;;5027359;28;20053;-65
2023/12/23 07:24:54;;;;;;;15.27;3.53;;;8.80;99.90;;;;;;5026806;28;20251;-66
2023/12/23 07:27:19;;;;;;;19.77;3.88;;;8.80;99.90;;;;;;5027704;28;20090;-66
2023/12/23 07:29:45;;;;;;;17.92;4.68;;;8.90;99.90;;;;;;5030141;28;20076;-65
2023/12/23 07:32:10;;;;;;;19.53;3.70;;;8.90;99.90;;;;;;5029925;28;20037;-65
2023/12/23 07:34:36;;;;;;;24.23;5.10;;;8.90;99.90;;;;;;5030571;28;20382;-66
2023/12/23 07:37:01;;;;;;;18.83;3.93;;;8.90;99.90;;;;;;5031067;28;20098;-68
2023/12/23 07:39:27;;;;;;;23.50;4.70;;;8.90;99.90;;;;;;5031175;28;20042;-65
2023/12/23 07:41:53;;;;;;;25.47;3.80;;;8.90;99.90;;;;;;5030654;28;20188;-65
2023/12/23 07:44:18;;;;;;;17.65;3.25;;;8.90;99.90;;;;;;5031069;28;20056;-65
2023/12/23 07:46:44;;;;;;;19.50;4.43;;;8.90;99.90;;;;;;5029566;28;20409;-65
2023/12/23 07:49:10;;;;;;;26.77;5.17;;;8.90;99.90;;;;;;5028382;28;20408;-65
2023/12/23 07:51:35;;;;;;;19.70;4.17;;;8.90;99.90;;;;;;5029685;28;20034;-65
2023/12/23 07:54:01;;;;;;;18.30;3.90;;;8.90;99.90;;;;;;5024123;28;20047;-66
2023/12/23 07:56:27;;;;;;;23.67;4.13;;;9.00;99.90;;;;;;5024191;28;20563;-65
2023/12/23 07:58:53;;;;;;;23.52;4.18;;;9.00;99.90;;;;;;5020538;28;20041;-65
2023/12/23 08:01:18;;;;;;;16.40;4.57;;;9.00;99.90;;;;;;5024912;28;20034;-65
2023/12/23 08:03:44;;;;;;;21.42;3.88;;;9.00;99.90;;;;;;5028617;28;20045;-65
2023/12/23 08:06:09;;;;;;;24.87;3.53;;;9.00;99.90;;;;;;5028330;28;20037;-65
2023/12/23 08:08:35;;;;;;;32.67;5.27;;;9.00;99.90;;;;;;5027861;28;20033;-65
2023/12/23 08:11:01;;;;;;;17.03;3.57;;;9.00;99.90;;;;;;5027465;28;20041;-65
2023/12/23 08:13:29;;;;;;;20.00;3.83;;;9.00;99.90;;;;;;5029922;28;20694;-65
2023/12/23 08:15:55;;;;;;;24.00;4.68;;;9.10;99.90;;;;;;5027253;28;20041;-65
2023/12/23 08:18:20;;;;;;;22.63;5.17;;;9.10;99.90;;;;;;5026793;28;20034;-65
2023/12/23 08:20:46;;;;;;;23.77;3.43;;;9.00;99.90;;;;;;5030231;28;20037;-65
2023/12/23 08:23:12;;;;;;;24.08;3.38;;;9.00;99.90;;;;;;5029142;28;20057;-65
2023/12/23 08:25:37;;;;;;;14.40;3.05;;;9.10;99.90;;;;;;5028525;28;20037;-65
2023/12/23 08:28:03;;;;;;;19.37;3.07;;;9.10;99.90;;;;;;5028166;28;20044;-65
2023/12/23 08:30:29;;;;;;;23.00;3.80;;;9.00;99.90;;;;;;5028355;28;20065;-66
2023/12/23 08:32:55;;;;;;;17.38;2.90;;;9.00;99.90;;;;;;5023391;28;20065;-65
2023/12/23 08:35:21;;;;;;;13.53;2.73;;;9.00;99.90;;;;;;5030606;28;20041;-65
2023/12/23 08:37:46;;;;;;;14.35;3.25;;;9.00;99.90;;;;;;5029621;28;20040;-65
2023/12/23 08:40:12;;;;;;;14.80;2.83;;;9.00;99.90;;;;;;5011262;28;20120;-66
2023/12/23 08:42:38;;;;;;;15.15;2.78;;;9.10;99.90;;;;;;5030095;28;20436;-66
2023/12/23 08:45:04;;;;;;;16.20;2.60;;;9.10;99.90;;;;;;5027911;28;20052;-66
2023/12/23 08:47:30;;;;;;;17.33;3.05;;;9.10;99.90;;;;;;5022724;28;20291;-66
2023/12/23 08:49:55;;;;;;;17.73;2.83;;;9.10;99.90;;;;;;5025897;28;20428;-65
2023/12/23 08:52:21;;;;;;;21.57;3.60;;;9.10;99.90;;;;;;5026620;28;20128;-66
2023/12/23 08:54:46;;;;;;;20.80;2.93;;;9.10;99.90;;;;;;5026224;28;20554;-66
2023/12/23 08:57:12;;;;;;;31.48;4.03;;;9.00;99.90;;;;;;5029537;28;20133;-66
2023/12/23 08:59:38;;;;;;;25.10;4.00;;;9.00;99.90;;;;;;5029501;28;20087;-66
2023/12/23 09:02:04;;;;;;;20.23;4.03;;;9.00;99.90;;;;;;5029031;28;20041;-65
2023/12/23 09:04:30;;;;;;;23.48;2.97;;;9.10;99.90;;;;;;5011117;28;20132;-65
2023/12/23 09:06:57;;;;;;;24.97;3.77;;;9.10;99.90;;;;;;5028546;28;20196;-66
2023/12/23 09:09:23;;;;;;;23.40;4.53;;;9.10;99.90;;;;;;5022906;28;20342;-65
2023/12/23 09:11:49;;;;;;;28.67;3.78;;;9.10;99.90;;;;;;5023643;28;20475;-65
2023/12/23 09:14:15;;;;;;;24.45;3.58;;;9.10;99.90;;;;;;5028150;28;20136;-65
2023/12/23 09:16:41;;;;;;;25.55;3.55;;;9.10;99.90;;;;;;5023753;28;20164;-65
2023/12/23 09:19:06;;;;;;;20.20;3.67;;;9.10;99.90;;;;;;5025596;28;20177;-64
2023/12/23 09:21:33;;;;;;;24.63;5.53;;;9.10;99.90;;;;;;5025878;28;20038;-64
2023/12/23 09:23:58;;;;;;;27.13;3.90;;;9.10;99.90;;;;;;5025888;28;20045;-64
2023/12/23 09:26:24;;;;;;;28.77;5.27;;;9.10;99.90;;;;;;5027922;28;20040;-66
2023/12/23 09:28:53;;;;;;;29.00;4.05;;;9.10;99.90;;;;;;5023115;28;20040;-68
2023/12/23 09:31:19;;;;;;;22.08;3.95;;;9.10;99.90;;;;;;5027656;28;20061;-68
2023/12/23 09:33:44;;;;;;;26.08;3.92;;;9.20;99.90;;;;;;5025536;28;20122;-68
2023/12/23 09:36:10;;;;;;;27.60;6.03;;;9.10;99.90;;;;;;5023651;28;20070;-68
2023/12/23 09:38:36;;;;;;;21.60;3.70;;;9.10;99.90;;;;;;5022359;28;20037;-68
2023/12/23 09:41:02;;;;;;;20.90;3.47;;;9.10;99.90;;;;;;5023606;28;20180;-68
2023/12/23 09:43:28;;;;;;;17.70;2.95;;;9.00;99.90;;;;;;5024423;28;20045;-68
2023/12/23 09:45:56;;;;;;;28.13;3.70;;;9.10;99.90;;;;;;5022802;28;20529;-68
2023/12/23 09:48:22;;;;;;;28.73;4.25;;;9.10;99.90;;;;;;5024603;28;20042;-66
2023/12/23 09:50:48;;;;;;;17.52;3.42;;;9.10;99.90;;;;;;5028258;28;20116;-65
2023/12/23 09:53:14;;;;;;;27.65;3.15;;;9.00;99.90;;;;;;5024012;28;20130;-66
2023/12/23 09:55:40;;;;;;;21.83;3.78;;;9.10;99.90;;;;;;5023925;28;20520;-66
2023/12/23 09:58:06;;;;;;;24.90;4.18;;;9.10;99.90;;;;;;5038977;28;20056;-66
2023/12/23 10:00:32;;;;;;;23.60;4.18;;;9.10;99.90;;;;;;5026877;28;20508;-66
2023/12/23 10:02:59;;;;;;;21.88;3.63;;;9.10;99.90;;;;;;5020640;28;20049;-65
2023/12/23 10:05:29;;;;;;;;;;;9.10;99.90;;;;;;5023969;28;20095;-63
2023/12/23 10:07:58;;;;;;;21.35;3.65;;;9.10;99.90;;;;;;5026495;28;20395;-65
2023/12/23 10:10:24;;;;;;;29.83;2.80;;;9.20;99.90;;;;;;5026548;28;20088;-64
2023/12/23 10:12:50;;;;;;;24.88;3.55;;;9.20;99.90;;;;;;5027682;28;20041;-65
2023/12/23 10:15:16;;;;;;;20.60;2.90;;;9.20;99.90;;;;;;5019860;28;20148;-65
2023/12/23 10:17:41;;;;;;;20.38;3.25;;;9.20;99.90;;;;;;5024902;28;20061;-64
2023/12/23 10:20:10;;;;;;;22.07;3.30;;;9.20;99.90;;;;;;5028103;28;20045;-65
2023/12/23 10:22:35;;;;;;;19.13;2.85;;;9.20;99.90;;;;;;5025128;28;20333;-65
2023/12/23 10:25:01;;;;;;;15.43;2.77;;;9.20;99.90;;;;;;5025973;28;20041;-65
2023/12/23 10:27:31;;;;;;;20.35;2.65;;;9.20;99.90;;;;;;5025084;28;20041;-64
2023/12/23 10:29:59;;;;;;;21.35;3.13;;;9.20;99.90;;;;;;5021559;28;20045;-63
2023/12/23 10:32:27;;;;;;;22.85;3.17;;;9.30;99.90;;;;;;5026860;28;20037;-63
2023/12/23 10:35:00;;;;;;;19.75;3.25;;;9.30;99.90;;;;;;5026707;28;20041;-65
2023/12/23 10:37:27;;;;;;;23.50;3.30;;;9.30;99.90;;;;;;5028210;28;20450;-65
2023/12/23 10:40:04;;;;;;;21.10;2.90;;;9.30;99.90;;;;;;5018183;28;20048;-64
2023/12/23 10:42:32;;;;;;;26.38;3.70;;;9.30;99.90;;;;;;5020630;28;20037;-64
2023/12/23 11:54:48;;;;;;;22.88;2.95;;;9.40;99.90;;;;;;5031275;27;20462;-67
2023/12/23 11:57:14;;;;;;;;;;;9.50;99.90;;;;;;5042184;28;20501;-66
2023/12/23 11:59:40;;;;;;;22.42;3.08;;;9.60;99.90;;;;;;5035751;28;19932;-67
2023/12/23 12:02:06;;;;;;;;;;;9.50;99.90;;;;;;5045348;28;20122;-67
2023/12/23 12:04:32;;;;;;;23.00;2.72;;;9.50;99.90;;;;;;5039951;28;19929;-66
2023/12/23 12:06:57;;;;;;;20.53;3.63;;;9.60;99.90;;;;;;5040911;28;20049;-66
2023/12/23 12:09:24;;;;;;;15.47;2.13;;;9.60;99.90;;;;;;5037828;28;20034;-66
2023/12/23 12:11:49;;;;;;;;;;;9.60;99.90;;;;;;5032526;28;20300;-66
2023/12/23 12:14:15;;;;;;;20.63;2.80;;;9.60;99.90;;;;;;5039476;28;20398;-67
2023/12/23 12:16:41;;;;;;;18.83;2.67;;;9.70;99.90;;;;;;5040920;28;20035;-66
2023/12/23 12:19:06;;;;;;;14.23;3.50;;;9.70;99.90;;;;;;5043724;28;20039;-65
2023/12/23 12:21:32;;;;;;;18.73;3.43;;;9.70;99.90;;;;;;5039583;28;20060;-66
2023/12/23 12:23:59;;;;;;;20.67;3.93;;;9.70;99.90;;;;;;5035226;28;20120;-67
2023/12/23 12:26:25;;;;;;;19.15;2.50;;;9.80;99.90;;;;;;5022547;28;20363;-67
2023/12/23 12:28:50;;;;;;;16.98;3.15;;;9.80;99.90;;;;;;5039410;28;20095;-65
2023/12/23 12:31:17;;;;;;;19.40;3.00;;;9.80;99.90;;;;;;5041439;28;20025;-66
2023/12/23 12:33:43;;;;;;;17.83;2.50;;;9.80;99.90;;;;;;5037893;28;20312;-66
2023/12/23 12:36:14;;;;;;;17.48;2.88;;;9.90;99.90;;;;;;5042033;28;20033;-67
2023/12/23 12:38:44;;;;;;;11.80;2.40;;;9.90;99.90;;;;;;5031992;28;20124;-66
2023/12/23 12:41:10;;;;;;;17.48;2.67;;;9.90;99.90;;;;;;5043941;28;20041;-65
2023/12/23 12:43:43;;;;;;;21.83;2.97;;;9.90;99.90;;;;;;5043949;28;20073;-66
2023/12/23 12:46:11;;;;;;;16.48;2.30;;;9.90;99.90;;;;;;5036254;28;20095;-65
2023/12/23 12:48:37;;;;;;;11.50;1.83;;;9.90;99.90;;;;;;5036240;28;20030;-66
2023/12/23 12:51:05;;;;;;;10.98;2.53;;;10.00;99.90;;;;;;5029144;28;20518;-66
2023/12/23 12:53:30;;;;;;;17.88;4.05;;;10.00;99.90;;;;;;5018791;28;20045;-65
2023/12/23 12:56:10;;;;;;;14.05;3.22;;;10.00;99.90;;;;;;5030076;28;20037;-65
2023/12/23 12:58:36;;;;;;;12.57;2.10;;;10.00;99.90;;;;;;5019526;28;20442;-66
2023/12/23 13:01:02;;;;;;;23.80;3.53;;;10.00;99.90;;;;;;5026469;28;20421;-65
2023/12/23 13:03:29;;;;;;;20.73;2.92;;;10.00;99.90;;;;;;5030061;28;20083;-66
2023/12/23 13:05:55;;;;;;;18.27;2.53;;;10.00;99.90;;;;;;5014927;28;20076;-66
2023/12/23 13:08:21;;;;;;;11.43;1.80;;;10.00;99.90;;;;;;5027292;28;20140;-66
2023/12/23 13:10:46;;;;;;;14.90;3.10;;;10.00;99.90;;;;;;5030581;28;20112;-66
2023/12/23 13:13:12;;;;;;;18.17;2.77;;;10.00;99.90;;;;;;5008129;28;20280;-66
2023/12/23 13:15:38;;;;;;;18.73;3.08;;;9.90;99.90;;;;;;5028642;28;20099;-66
2023/12/23 13:18:04;;;;;;;15.43;1.73;;;10.00;99.90;;;;;;5029552;28;20029;-67
2023/12/23 13:20:30;;;;;;;21.90;2.85;;;9.90;99.90;;;;;;5030660;28;20047;-66
2023/12/23 13:22:56;;;;;;;18.33;1.90;;;9.90;99.90;;;;;;5025914;28;20045;-65
2023/12/23 13:25:21;;;;;;;12.50;1.90;;;9.90;99.90;;;;;;5025011;28;20417;-66
2023/12/23 13:27:47;;;;;;;15.07;1.67;;;10.00;99.90;;;;;;5027058;28;20042;-66
2023/12/23 13:30:13;;;;;;;17.20;2.10;;;10.00;99.90;;;;;;5027730;28;20413;-66
2023/12/23 13:32:38;;;;;;;12.10;1.80;;;10.00;99.90;;;;;;5020806;28;20397;-66
2023/12/23 13:35:04;;;;;;;14.50;2.23;;;10.00;99.90;;;;;;5023686;28;20519;-66
2023/12/23 13:37:30;;;;;;;19.13;2.42;;;10.00;99.90;;;;;;5028254;28;20041;-66
2023/12/23 13:39:56;;;;;;;;;;;10.00;99.90;;;;;;5035263;28;20049;-64
2023/12/23 13:42:22;;;;;;;14.93;2.70;;;10.00;99.90;;;;;;5035651;28;19921;-65
2023/12/23 13:44:47;;;;;;;14.05;2.03;;;10.10;99.90;;;;;;5030399;28;20040;-66
2023/12/23 13:47:13;;;;;;;8.07;1.75;;;10.10;99.90;;;;;;5030920;28;20056;-66
2023/12/23 13:49:39;;;;;;;15.50;2.23;;;10.10;99.90;;;;;;5025992;28;20041;-66
2023/12/23 13:52:04;;;;;;;14.57;2.70;;;10.10;99.90;;;;;;5029248;28;20346;-66
2023/12/23 13:54:30;;;;;;;9.50;2.10;;;10.10;99.90;;;;;;5028723;28;20339;-66